sensor_id;sensor_type;location;lat;lon;timestamp;pressure;altitude;pressure_sealevel;temperature;humidity
12213;BME280;6169;44.158;22.788;2023-03-14T00:02:06;101317.38;;;4.60;47.00
12213;BME280;6169;44.158;22.788;2023-03-14T00:07:10;101320.00;;;4.68;46.92
12213;BME280;6169;44.158;22.788;2023-03-14T00:12:14;101325.13;;;4.78;46.15
12213;BME280;6169;44.158;22.788;2023-03-14T00:17:16;101312.53;;;4.55;47.45
12213;BME280;6169;44.158;22.788;2023-03-14T00:22:18;101305.03;;;4.65;46.37
12213;BME280;6169;44.158;22.788;2023-03-14T00:27:22;101288.75;;;4.44;47.18
12213;BME280;6169;44.158;22.788;2023-03-14T00:32:24;101279.84;;;4.43;47.39
12213;BME280;6169;44.158;22.788;2023-03-14T00:37:27;101289.25;;;4.25;48.46
12213;BME280;6169;44.158;22.788;2023-03-14T00:42:30;101297.91;;;4.12;48.60
12213;BME280;6169;44.158;22.788;2023-03-14T00:47:33;101301.75;;;4.40;47.66
12213;BME280;6169;44.158;22.788;2023-03-14T00:52:35;101306.47;;;4.15;48.83
12213;BME280;6169;44.158;22.788;2023-03-14T00:57:39;101129.06;;;2.99;48.95
12213;BME280;6169;44.158;22.788;2023-03-14T01:02:41;101307.69;;;4.13;49.84
12213;BME280;6169;44.158;22.788;2023-03-14T01:07:43;101305.63;;;4.15;48.87
12213;BME280;6169;44.158;22.788;2023-03-14T01:12:47;101303.63;;;3.86;49.64
12213;BME280;6169;44.158;22.788;2023-03-14T01:17:49;101301.72;;;3.94;49.83
12213;BME280;6169;44.158;22.788;2023-03-14T01:22:52;101304.66;;;3.85;49.75
12213;BME280;6169;44.158;22.788;2023-03-14T01:27:55;101293.72;;;3.86;49.69
12213;BME280;6169;44.158;22.788;2023-03-14T01:32:57;101290.09;;;4.02;49.57
12213;BME280;6169;44.158;22.788;2023-03-14T01:38:00;101282.09;;;4.32;48.57
12213;BME280;6169;44.158;22.788;2023-03-14T01:43:14;101270.06;;;3.82;49.17
12213;BME280;6169;44.158;22.788;2023-03-14T01:48:16;101263.22;;;3.71;50.47
12213;BME280;6169;44.158;22.788;2023-03-14T01:53:19;101267.50;;;3.57;50.15
12213;BME280;6169;44.158;22.788;2023-03-14T01:58:24;101256.00;;;3.71;51.11
12213;BME280;6169;44.158;22.788;2023-03-14T02:03:29;101247.00;;;3.87;50.14
12213;BME280;6169;44.158;22.788;2023-03-14T02:08:33;101248.28;;;3.91;50.42
12213;BME280;6169;44.158;22.788;2023-03-14T02:13:39;101245.53;;;4.00;49.49
12213;BME280;6169;44.158;22.788;2023-03-14T02:18:41;101232.31;;;4.13;48.13
12213;BME280;6169;44.158;22.788;2023-03-14T02:23:48;101222.63;;;4.27;48.32
12213;BME280;6169;44.158;22.788;2023-03-14T02:28:54;101217.81;;;3.99;48.24
12213;BME280;6169;44.158;22.788;2023-03-14T02:33:57;101211.94;;;3.72;49.71
12213;BME280;6169;44.158;22.788;2023-03-14T02:39:05;101219.94;;;3.81;49.01
12213;BME280;6169;44.158;22.788;2023-03-14T02:44:10;101222.63;;;3.81;49.11
12213;BME280;6169;44.158;22.788;2023-03-14T02:49:14;101222.22;;;3.69;49.38
12213;BME280;6169;44.158;22.788;2023-03-14T02:54:17;101218.13;;;3.50;49.50
12213;BME280;6169;44.158;22.788;2023-03-14T02:59:22;101219.84;;;3.51;48.55
12213;BME280;6169;44.158;22.788;2023-03-14T03:04:24;101229.25;;;3.47;49.62
12213;BME280;6169;44.158;22.788;2023-03-14T03:09:27;101225.44;;;3.33;49.22
12213;BME280;6169;44.158;22.788;2023-03-14T03:14:30;101216.16;;;3.44;48.69
12213;BME280;6169;44.158;22.788;2023-03-14T03:19:34;101217.47;;;3.17;49.76
12213;BME280;6169;44.158;22.788;2023-03-14T03:24:36;101218.88;;;3.67;48.58
12213;BME280;6169;44.158;22.788;2023-03-14T03:29:40;101224.19;;;3.52;48.89
12213;BME280;6169;44.158;22.788;2023-03-14T03:34:42;101220.66;;;3.51;49.08
12213;BME280;6169;44.158;22.788;2023-03-14T03:39:44;101227.94;;;3.35;48.73
12213;BME280;6169;44.158;22.788;2023-03-14T03:44:48;101224.78;;;3.31;48.69
12213;BME280;6169;44.158;22.788;2023-03-14T03:49:50;101223.41;;;2.96;49.45
12213;BME280;6169;44.158;22.788;2023-03-14T03:54:52;101231.38;;;3.20;49.71
12213;BME280;6169;44.158;22.788;2023-03-14T03:59:56;101233.75;;;3.15;50.09
12213;BME280;6169;44.158;22.788;2023-03-14T04:04:58;101229.13;;;3.01;50.03
12213;BME280;6169;44.158;22.788;2023-03-14T04:10:00;101227.59;;;3.06;49.38
12213;BME280;6169;44.158;22.788;2023-03-14T04:15:05;101210.28;;;3.09;49.49
12213;BME280;6169;44.158;22.788;2023-03-14T04:20:09;101191.91;;;2.81;50.77
12213;BME280;6169;44.158;22.788;2023-03-14T04:25:11;101221.56;;;2.96;48.76
12213;BME280;6169;44.158;22.788;2023-03-14T04:30:15;101232.19;;;2.81;51.31
12213;BME280;6169;44.158;22.788;2023-03-14T04:35:17;101221.56;;;2.96;50.75
12213;BME280;6169;44.158;22.788;2023-03-14T04:40:19;101221.59;;;2.88;49.91
12213;BME280;6169;44.158;22.788;2023-03-14T04:45:23;101219.94;;;2.79;50.09
12213;BME280;6169;44.158;22.788;2023-03-14T04:50:25;101224.34;;;2.72;50.72
12213;BME280;6169;44.158;22.788;2023-03-14T04:55:27;101218.75;;;2.90;50.05
12213;BME280;6169;44.158;22.788;2023-03-14T05:00:31;101214.13;;;3.15;49.35
12213;BME280;6169;44.158;22.788;2023-03-14T05:05:33;101203.16;;;2.85;50.24
12213;BME280;6169;44.158;22.788;2023-03-14T05:10:36;101207.13;;;3.37;49.43
12213;BME280;6169;44.158;22.788;2023-03-14T05:15:39;101198.75;;;3.31;50.08
12213;BME280;6169;44.158;22.788;2023-03-14T05:20:42;101196.78;;;3.57;50.28
12213;BME280;6169;44.158;22.788;2023-03-14T05:25:44;101206.69;;;3.56;50.09
12213;BME280;6169;44.158;22.788;2023-03-14T05:30:48;101203.50;;;3.75;49.42
12213;BME280;6169;44.158;22.788;2023-03-14T05:35:50;101198.06;;;3.84;50.39
12213;BME280;6169;44.158;22.788;2023-03-14T05:40:52;101200.34;;;3.95;50.45
12213;BME280;6169;44.158;22.788;2023-03-14T05:45:56;101209.16;;;4.04;50.45
12213;BME280;6169;44.158;22.788;2023-03-14T05:50:58;101208.53;;;4.02;51.77
12213;BME280;6169;44.158;22.788;2023-03-14T05:56:01;101198.13;;;4.36;51.04
12213;BME280;6169;44.158;22.788;2023-03-14T06:01:05;101194.34;;;4.60;50.20
12213;BME280;6169;44.158;22.788;2023-03-14T06:06:08;101189.56;;;5.07;48.63
12213;BME280;6169;44.158;22.788;2023-03-14T06:11:10;101178.59;;;5.08;49.17
12213;BME280;6169;44.158;22.788;2023-03-14T06:16:14;101187.06;;;5.05;49.27
12213;BME280;6169;44.158;22.788;2023-03-14T06:21:16;101053.41;;;3.94;49.89
12213;BME280;6169;44.158;22.788;2023-03-14T06:26:18;101190.88;;;5.11;49.96
12213;BME280;6169;44.158;22.788;2023-03-14T06:31:22;101174.16;;;5.01;49.99
12213;BME280;6169;44.158;22.788;2023-03-14T06:36:24;101163.91;;;5.11;49.37
12213;BME280;6169;44.158;22.788;2023-03-14T06:41:26;101201.28;;;4.99;51.31
12213;BME280;6169;44.158;22.788;2023-03-14T06:46:30;101193.00;;;5.52;49.15
12213;BME280;6169;44.158;22.788;2023-03-14T06:51:32;101183.59;;;5.84;48.26
12213;BME280;6169;44.158;22.788;2023-03-14T06:56:34;101195.47;;;5.68;49.42
12213;BME280;6169;44.158;22.788;2023-03-14T07:01:38;101198.75;;;5.85;48.45
12213;BME280;6169;44.158;22.788;2023-03-14T07:06:40;101200.66;;;5.48;51.13
12213;BME280;6169;44.158;22.788;2023-03-14T07:11:45;101185.53;;;6.47;49.67
12213;BME280;6169;44.158;22.788;2023-03-14T07:16:48;101176.50;;;6.67;49.56
12213;BME280;6169;44.158;22.788;2023-03-14T07:21:50;101174.03;;;6.73;48.29
12213;BME280;6169;44.158;22.788;2023-03-14T07:26:53;101179.63;;;6.71;49.03
12213;BME280;6169;44.158;22.788;2023-03-14T07:31:56;101164.47;;;6.77;50.47
12213;BME280;6169;44.158;22.788;2023-03-14T07:36:58;101168.97;;;7.72;47.79
12213;BME280;6169;44.158;22.788;2023-03-14T07:42:01;101087.56;;;7.81;44.50
12213;BME280;6169;44.158;22.788;2023-03-14T07:47:04;101124.31;;;8.68;43.69
12213;BME280;6169;44.158;22.788;2023-03-14T07:52:07;101112.34;;;9.27;42.53
12213;BME280;6169;44.158;22.788;2023-03-14T07:57:09;101113.72;;;9.05;43.04
12213;BME280;6169;44.158;22.788;2023-03-14T08:02:13;101106.91;;;9.27;41.02
12213;BME280;6169;44.158;22.788;2023-03-14T08:07:15;101103.00;;;9.55;37.52
12213;BME280;6169;44.158;22.788;2023-03-14T08:12:17;101103.53;;;8.55;38.04
12213;BME280;6169;44.158;22.788;2023-03-14T08:17:21;101096.13;;;9.52;36.27
12213;BME280;6169;44.158;22.788;2023-03-14T08:22:23;101105.69;;;10.30;36.06
12213;BME280;6169;44.158;22.788;2023-03-14T08:27:25;101094.53;;;10.75;34.54
12213;BME280;6169;44.158;22.788;2023-03-14T08:32:29;101076.16;;;10.89;34.60
12213;BME280;6169;44.158;22.788;2023-03-14T08:37:31;101081.94;;;11.11;34.03
12213;BME280;6169;44.158;22.788;2023-03-14T08:42:34;101068.88;;;10.71;34.83
12213;BME280;6169;44.158;22.788;2023-03-14T08:47:38;101051.16;;;11.10;35.40
12213;BME280;6169;44.158;22.788;2023-03-14T08:52:40;101052.81;;;11.65;35.00
12213;BME280;6169;44.158;22.788;2023-03-14T08:57:42;101042.84;;;11.47;34.73
12213;BME280;6169;44.158;22.788;2023-03-14T09:02:45;101024.16;;;11.51;35.20
12213;BME280;6169;44.158;22.788;2023-03-14T09:07:48;101013.69;;;11.24;35.36
12213;BME280;6169;44.158;22.788;2023-03-14T09:12:50;101013.50;;;12.08;34.96
12213;BME280;6169;44.158;22.788;2023-03-14T09:17:53;101014.59;;;12.47;34.07
12213;BME280;6169;44.158;22.788;2023-03-14T09:22:55;101013.75;;;12.07;35.29
12213;BME280;6169;44.158;22.788;2023-03-14T09:27:58;100971.88;;;12.24;34.76
12213;BME280;6169;44.158;22.788;2023-03-14T09:33:01;100978.00;;;11.79;35.31
12213;BME280;6169;44.158;22.788;2023-03-14T09:38:03;100965.16;;;13.01;34.11
12213;BME280;6169;44.158;22.788;2023-03-14T09:43:09;100966.31;;;13.56;34.87
12213;BME280;6169;44.158;22.788;2023-03-14T09:48:19;100966.31;;;13.95;33.19
12213;BME280;6169;44.158;22.788;2023-03-14T09:53:24;100962.97;;;14.32;32.75
12213;BME280;6169;44.158;22.788;2023-03-14T09:58:29;100947.72;;;14.14;33.26
12213;BME280;6169;44.158;22.788;2023-03-14T10:03:34;100927.25;;;14.16;32.63
12213;BME280;6169;44.158;22.788;2023-03-14T10:08:39;100915.19;;;13.90;32.21
12213;BME280;6169;44.158;22.788;2023-03-14T10:13:50;100909.56;;;14.51;31.57
12213;BME280;6169;44.158;22.788;2023-03-14T10:19:06;100907.03;;;14.66;32.71
12213;BME280;6169;44.158;22.788;2023-03-14T10:24:20;100889.31;;;14.74;32.28
12213;BME280;6169;44.158;22.788;2023-03-14T10:29:23;100883.44;;;14.92;32.16
12213;BME280;6169;44.158;22.788;2023-03-14T10:34:28;100875.59;;;14.47;31.75
12213;BME280;6169;44.158;22.788;2023-03-14T10:39:37;100873.97;;;13.97;31.98
12213;BME280;6169;44.158;22.788;2023-03-14T10:44:42;100860.94;;;14.31;31.96
12213;BME280;6169;44.158;22.788;2023-03-14T10:49:46;100851.47;;;15.03;31.20
12213;BME280;6169;44.158;22.788;2023-03-14T10:54:52;100829.28;;;14.35;31.69
12213;BME280;6169;44.158;22.788;2023-03-14T10:59:56;100813.59;;;15.27;31.87
12213;BME280;6169;44.158;22.788;2023-03-14T11:05:06;100787.66;;;14.98;31.71
12213;BME280;6169;44.158;22.788;2023-03-14T11:10:20;100770.91;;;15.47;31.27
12213;BME280;6169;44.158;22.788;2023-03-14T11:15:30;100760.16;;;15.25;31.28
12213;BME280;6169;44.158;22.788;2023-03-14T11:20:40;100751.00;;;15.56;31.54
12213;BME280;6169;44.158;22.788;2023-03-14T11:25:53;100738.78;;;15.22;31.50
12213;BME280;6169;44.158;22.788;2023-03-14T11:31:04;100728.59;;;15.90;29.80
12213;BME280;6169;44.158;22.788;2023-03-14T11:36:12;100710.25;;;15.96;30.88
12213;BME280;6169;44.158;22.788;2023-03-14T11:41:20;100705.03;;;16.20;30.88
12213;BME280;6169;44.158;22.788;2023-03-14T11:46:27;100676.19;;;16.63;29.75
12213;BME280;6169;44.158;22.788;2023-03-14T11:51:34;100672.38;;;16.34;29.31
12213;BME280;6169;44.158;22.788;2023-03-14T11:56:40;100652.63;;;16.57;29.86
12213;BME280;6169;44.158;22.788;2023-03-14T12:01:53;100641.09;;;16.45;29.66
12213;BME280;6169;44.158;22.788;2023-03-14T12:07:02;100618.34;;;16.39;29.29
12213;BME280;6169;44.158;22.788;2023-03-14T12:12:05;100601.00;;;16.59;29.20
12213;BME280;6169;44.158;22.788;2023-03-14T12:17:19;100592.25;;;17.22;29.51
12213;BME280;6169;44.158;22.788;2023-03-14T12:22:30;100578.94;;;17.40;28.89
12213;BME280;6169;44.158;22.788;2023-03-14T12:27:46;100581.69;;;17.74;27.50
12213;BME280;6169;44.158;22.788;2023-03-14T12:33:20;100563.34;;;17.98;28.01
12213;BME280;6169;44.158;22.788;2023-03-14T12:38:29;100552.41;;;17.88;26.84
12213;BME280;6169;44.158;22.788;2023-03-14T12:43:34;100536.25;;;17.81;27.67
12213;BME280;6169;44.158;22.788;2023-03-14T12:48:38;100529.53;;;17.64;27.79
12213;BME280;6169;44.158;22.788;2023-03-14T12:54:00;100520.03;;;17.51;27.93
12213;BME280;6169;44.158;22.788;2023-03-14T12:59:29;100508.72;;;17.23;27.02
12213;BME280;6169;44.158;22.788;2023-03-14T13:04:34;100495.91;;;17.43;26.31
12213;BME280;6169;44.158;22.788;2023-03-14T13:10:03;100479.63;;;17.51;27.09
12213;BME280;6169;44.158;22.788;2023-03-14T13:15:22;100472.03;;;17.38;26.71
12213;BME280;6169;44.158;22.788;2023-03-14T13:20:29;100460.06;;;17.24;26.83
12213;BME280;6169;44.158;22.788;2023-03-14T13:25:35;100457.50;;;17.67;26.40
12213;BME280;6169;44.158;22.788;2023-03-14T13:30:41;100449.22;;;17.96;26.07
12213;BME280;6169;44.158;22.788;2023-03-14T13:35:45;100412.50;;;17.57;25.77
12213;BME280;6169;44.158;22.788;2023-03-14T13:40:50;100430.91;;;17.57;26.29
12213;BME280;6169;44.158;22.788;2023-03-14T13:45:54;100418.94;;;17.13;26.58
12213;BME280;6169;44.158;22.788;2023-03-14T13:51:01;100406.31;;;17.71;26.37
12213;BME280;6169;44.158;22.788;2023-03-14T13:56:08;100392.56;;;17.71;26.62
12213;BME280;6169;44.158;22.788;2023-03-14T14:01:14;100381.69;;;17.60;26.10
12213;BME280;6169;44.158;22.788;2023-03-14T14:06:30;100381.00;;;17.15;26.53
12213;BME280;6169;44.158;22.788;2023-03-14T14:11:42;100360.38;;;17.23;27.13
12213;BME280;6169;44.158;22.788;2023-03-14T14:16:46;100345.31;;;17.15;26.93
12213;BME280;6169;44.158;22.788;2023-03-14T14:21:49;100348.91;;;16.82;27.05
12213;BME280;6169;44.158;22.788;2023-03-14T14:26:55;100334.94;;;17.07;26.95
12213;BME280;6169;44.158;22.788;2023-03-14T14:32:11;100323.25;;;16.62;27.61
12213;BME280;6169;44.158;22.788;2023-03-14T14:37:19;100299.50;;;17.11;26.96
12213;BME280;6169;44.158;22.788;2023-03-14T14:42:25;100311.81;;;16.55;27.48
12213;BME280;6169;44.158;22.788;2023-03-14T14:47:28;100306.28;;;16.60;27.57
12213;BME280;6169;44.158;22.788;2023-03-14T14:52:36;100294.81;;;16.53;27.11
12213;BME280;6169;44.158;22.788;2023-03-14T14:57:40;100286.94;;;16.36;27.73
12213;BME280;6169;44.158;22.788;2023-03-14T15:02:45;100293.16;;;16.13;28.40
12213;BME280;6169;44.158;22.788;2023-03-14T15:07:48;100280.66;;;16.41;27.81
12213;BME280;6169;44.158;22.788;2023-03-14T15:12:52;100280.28;;;16.08;28.47
12213;BME280;6169;44.158;22.788;2023-03-14T15:17:55;100272.78;;;16.24;28.43
12213;BME280;6169;44.158;22.788;2023-03-14T15:22:57;100275.38;;;16.05;28.94
12213;BME280;6169;44.158;22.788;2023-03-14T15:28:00;100267.50;;;15.93;29.00
12213;BME280;6169;44.158;22.788;2023-03-14T15:33:03;100264.59;;;15.74;29.12
12213;BME280;6169;44.158;22.788;2023-03-14T15:38:05;100252.25;;;15.77;29.42
12213;BME280;6169;44.158;22.788;2023-03-14T15:43:09;100248.25;;;15.54;30.46
12213;BME280;6169;44.158;22.788;2023-03-14T15:48:14;100240.59;;;15.46;29.62
12213;BME280;6169;44.158;22.788;2023-03-14T15:53:18;100233.03;;;15.17;30.71
12213;BME280;6169;44.158;22.788;2023-03-14T15:58:21;100233.09;;;14.97;30.77
12213;BME280;6169;44.158;22.788;2023-03-14T16:03:24;100228.19;;;14.78;31.40
12213;BME280;6169;44.158;22.788;2023-03-14T16:08:26;100223.84;;;14.77;30.96
12213;BME280;6169;44.158;22.788;2023-03-14T16:13:31;100218.06;;;14.63;31.38
12213;BME280;6169;44.158;22.788;2023-03-14T16:18:35;100212.88;;;14.57;31.39
12213;BME280;6169;44.158;22.788;2023-03-14T16:23:38;100212.91;;;14.26;32.20
12213;BME280;6169;44.158;22.788;2023-03-14T16:28:42;100211.78;;;14.12;32.33
12213;BME280;6169;44.158;22.788;2023-03-14T16:33:45;100198.66;;;13.88;33.09
12213;BME280;6169;44.158;22.788;2023-03-14T16:38:48;100202.75;;;13.75;33.98
12213;BME280;6169;44.158;22.788;2023-03-14T16:43:51;100199.91;;;13.55;34.71
12213;BME280;6169;44.158;22.788;2023-03-14T16:48:54;100201.28;;;13.47;34.71
12213;BME280;6169;44.158;22.788;2023-03-14T16:53:57;100196.88;;;13.41;35.03
12213;BME280;6169;44.158;22.788;2023-03-14T16:59:00;100203.75;;;13.54;35.00
12213;BME280;6169;44.158;22.788;2023-03-14T17:04:03;100207.34;;;13.65;35.14
12213;BME280;6169;44.158;22.788;2023-03-14T17:09:05;100206.66;;;13.22;35.91
12213;BME280;6169;44.158;22.788;2023-03-14T17:14:09;100204.13;;;13.10;36.58
12213;BME280;6169;44.158;22.788;2023-03-14T17:19:11;100207.53;;;12.80;36.92
12213;BME280;6169;44.158;22.788;2023-03-14T17:24:13;100211.50;;;12.67;37.40
12213;BME280;6169;44.158;22.788;2023-03-14T17:29:17;100203.13;;;12.79;37.91
12213;BME280;6169;44.158;22.788;2023-03-14T17:34:19;100203.91;;;12.74;37.89
12213;BME280;6169;44.158;22.788;2023-03-14T17:39:22;100200.50;;;12.57;38.53
12213;BME280;6169;44.158;22.788;2023-03-14T17:44:26;100203.66;;;12.38;39.15
12213;BME280;6169;44.158;22.788;2023-03-14T17:49:29;100198.06;;;12.18;39.98
12213;BME280;6169;44.158;22.788;2023-03-14T17:54:31;100191.00;;;11.90;40.36
12213;BME280;6169;44.158;22.788;2023-03-14T17:59:36;100187.91;;;11.81;40.37
12213;BME280;6169;44.158;22.788;2023-03-14T18:04:38;100189.16;;;11.73;39.60
12213;BME280;6169;44.158;22.788;2023-03-14T18:09:41;100192.28;;;11.82;39.90
12213;BME280;6169;44.158;22.788;2023-03-14T18:14:45;100194.59;;;11.24;41.46
12213;BME280;6169;44.158;22.788;2023-03-14T18:19:47;100199.56;;;11.05;41.78
12213;BME280;6169;44.158;22.788;2023-03-14T18:24:50;100202.06;;;10.90;42.54
12213;BME280;6169;44.158;22.788;2023-03-14T18:29:54;100201.94;;;10.63;43.06
12213;BME280;6169;44.158;22.788;2023-03-14T18:34:56;100199.56;;;10.16;44.08
12213;BME280;6169;44.158;22.788;2023-03-14T18:39:59;100189.19;;;10.13;44.74
12213;BME280;6169;44.158;22.788;2023-03-14T18:45:07;100187.59;;;10.17;44.56
12213;BME280;6169;44.158;22.788;2023-03-14T18:50:11;100185.22;;;9.87;45.86
12213;BME280;6169;44.158;22.788;2023-03-14T18:55:14;100185.69;;;10.00;46.71
12213;BME280;6169;44.158;22.788;2023-03-14T19:00:19;100185.06;;;9.93;46.52
12213;BME280;6169;44.158;22.788;2023-03-14T19:05:22;100183.25;;;9.99;46.04
12213;BME280;6169;44.158;22.788;2023-03-14T19:10:24;100170.16;;;9.79;46.96
12213;BME280;6169;44.158;22.788;2023-03-14T19:15:29;100165.41;;;9.57;46.33
12213;BME280;6169;44.158;22.788;2023-03-14T19:25:34;100155.66;;;9.45;46.65
12213;BME280;6169;44.158;22.788;2023-03-14T19:30:38;100144.06;;;9.49;46.36
12213;BME280;6169;44.158;22.788;2023-03-14T19:35:41;100141.88;;;9.34;46.37
12213;BME280;6169;44.158;22.788;2023-03-14T19:40:44;100137.03;;;9.08;47.05
12213;BME280;6169;44.158;22.788;2023-03-14T19:45:47;100129.50;;;8.98;47.70
12213;BME280;6169;44.158;22.788;2023-03-14T19:50:50;100136.19;;;8.67;48.13
12213;BME280;6169;44.158;22.788;2023-03-14T19:55:52;100146.88;;;8.85;48.02
12213;BME280;6169;44.158;22.788;2023-03-14T20:00:56;100155.84;;;8.86;47.30
12213;BME280;6169;44.158;22.788;2023-03-14T20:06:03;100159.25;;;8.81;47.80
12213;BME280;6169;44.158;22.788;2023-03-14T20:11:06;100159.72;;;8.78;46.85
12213;BME280;6169;44.158;22.788;2023-03-14T20:16:11;100156.56;;;8.70;46.83
12213;BME280;6169;44.158;22.788;2023-03-14T20:21:14;100144.50;;;8.89;47.18
12213;BME280;6169;44.158;22.788;2023-03-14T20:26:16;100139.75;;;8.96;47.35
12213;BME280;6169;44.158;22.788;2023-03-14T20:31:20;100140.63;;;8.85;47.23
12213;BME280;6169;44.158;22.788;2023-03-14T20:36:22;100137.50;;;8.53;47.68
12213;BME280;6169;44.158;22.788;2023-03-14T20:41:24;100140.34;;;8.46;47.90
12213;BME280;6169;44.158;22.788;2023-03-14T20:46:28;100128.66;;;8.34;48.30
12213;BME280;6169;44.158;22.788;2023-03-14T20:51:30;100113.50;;;8.33;48.88
12213;BME280;6169;44.158;22.788;2023-03-14T20:56:33;100116.03;;;8.75;47.97
12213;BME280;6169;44.158;22.788;2023-03-14T21:01:36;100116.63;;;8.53;48.84
12213;BME280;6169;44.158;22.788;2023-03-14T21:06:39;100114.75;;;8.18;48.53
12213;BME280;6169;44.158;22.788;2023-03-14T21:11:42;100108.06;;;8.44;47.26
12213;BME280;6169;44.158;22.788;2023-03-14T21:16:48;100103.69;;;8.32;48.49
12213;BME280;6169;44.158;22.788;2023-03-14T21:21:56;100106.25;;;8.15;48.96
12213;BME280;6169;44.158;22.788;2023-03-14T21:26:59;100102.31;;;8.29;48.77
12213;BME280;6169;44.158;22.788;2023-03-14T21:32:03;100101.91;;;8.02;49.28
12213;BME280;6169;44.158;22.788;2023-03-14T21:37:05;100099.81;;;7.92;50.15
12213;BME280;6169;44.158;22.788;2023-03-14T21:42:07;100085.81;;;8.31;49.12
12213;BME280;6169;44.158;22.788;2023-03-14T21:47:11;100082.13;;;8.13;49.19
12213;BME280;6169;44.158;22.788;2023-03-14T21:52:13;100080.84;;;8.16;49.03
12213;BME280;6169;44.158;22.788;2023-03-14T21:57:16;100068.00;;;7.99;49.43
12213;BME280;6169;44.158;22.788;2023-03-14T22:02:19;100063.31;;;8.18;49.53
12213;BME280;6169;44.158;22.788;2023-03-14T22:07:22;100044.34;;;7.83;49.06
12213;BME280;6169;44.158;22.788;2023-03-14T22:12:24;100063.56;;;8.40;49.35
12213;BME280;6169;44.158;22.788;2023-03-14T22:17:27;100058.38;;;8.39;49.42
12213;BME280;6169;44.158;22.788;2023-03-14T22:22:30;100055.06;;;8.37;49.47
12213;BME280;6169;44.158;22.788;2023-03-14T22:27:32;100051.75;;;8.11;50.39
12213;BME280;6169;44.158;22.788;2023-03-14T22:32:35;100058.94;;;8.06;50.15
12213;BME280;6169;44.158;22.788;2023-03-14T22:37:38;100041.75;;;8.23;49.93
12213;BME280;6169;44.158;22.788;2023-03-14T22:42:40;100029.50;;;8.44;49.89
12213;BME280;6169;44.158;22.788;2023-03-14T22:47:44;100025.88;;;8.39;48.76
12213;BME280;6169;44.158;22.788;2023-03-14T22:52:46;100021.84;;;8.41;49.13
12213;BME280;6169;44.158;22.788;2023-03-14T22:57:50;100010.75;;;8.43;49.28
12213;BME280;6169;44.158;22.788;2023-03-14T23:02:54;100023.72;;;8.17;49.60
12213;BME280;6169;44.158;22.788;2023-03-14T23:07:56;100021.50;;;8.26;48.51
12213;BME280;6169;44.158;22.788;2023-03-14T23:12:58;100023.19;;;8.15;49.73
12213;BME280;6169;44.158;22.788;2023-03-14T23:18:02;100017.78;;;8.27;48.46
12213;BME280;6169;44.158;22.788;2023-03-14T23:23:04;100016.53;;;8.23;48.95
12213;BME280;6169;44.158;22.788;2023-03-14T23:28:07;100015.06;;;8.27;48.70
12213;BME280;6169;44.158;22.788;2023-03-14T23:33:11;100011.50;;;8.38;48.41
12213;BME280;6169;44.158;22.788;2023-03-14T23:38:14;100011.94;;;8.47;48.23
12213;BME280;6169;44.158;22.788;2023-03-14T23:43:16;100015.50;;;8.24;48.57
12213;BME280;6169;44.158;22.788;2023-03-14T23:48:21;100004.69;;;8.12;48.94
12213;BME280;6169;44.158;22.788;2023-03-14T23:53:27;100005.00;;;8.39;47.67
12213;BME280;6169;44.158;22.788;2023-03-14T23:58:29;100002.91;;;8.41;47.82
